sensor_id;sensor_type;location;lat;lon;timestamp;P1;durP1;ratioP1;P2;durP2;ratioP2
71108;SDS011;59614;51.012;-1.648;2023-02-26T00:01:27;19.02;;;4.40;;
71108;SDS011;59614;51.012;-1.648;2023-02-26T00:03:55;13.52;;;3.78;;
71108;SDS011;59614;51.012;-1.648;2023-02-26T00:06:22;10.82;;;3.83;;
71108;SDS011;59614;51.012;-1.648;2023-02-26T00:08:48;19.50;;;4.10;;
71108;SDS011;59614;51.012;-1.648;2023-02-26T00:11:14;18.40;;;4.03;;
71108;SDS011;59614;51.012;-1.648;2023-02-26T00:13:41;26.52;;;4.50;;
71108;SDS011;59614;51.012;-1.648;2023-02-26T00:16:13;16.23;;;3.53;;
71108;SDS011;59614;51.012;-1.648;2023-02-26T00:19:04;18.23;;;4.63;;
71108;SDS011;59614;51.012;-1.648;2023-02-26T00:21:31;18.00;;;4.28;;
71108;SDS011;59614;51.012;-1.648;2023-02-26T00:23:58;14.60;;;3.85;;
71108;SDS011;59614;51.012;-1.648;2023-02-26T00:26:27;20.00;;;4.53;;
71108;SDS011;59614;51.012;-1.648;2023-02-26T00:28:54;24.48;;;4.20;;
71108;SDS011;59614;51.012;-1.648;2023-02-26T00:31:21;13.38;;;3.67;;
71108;SDS011;59614;51.012;-1.648;2023-02-26T00:33:50;10.93;;;3.70;;
71108;SDS011;59614;51.012;-1.648;2023-02-26T00:42:08;22.38;;;4.00;;
71108;SDS011;59614;51.012;-1.648;2023-02-26T00:44:33;9.50;;;3.13;;
71108;SDS011;59614;51.012;-1.648;2023-02-26T00:46:59;12.73;;;3.42;;
71108;SDS011;59614;51.012;-1.648;2023-02-26T00:50:04;16.13;;;3.50;;
71108;SDS011;59614;51.012;-1.648;2023-02-26T00:52:43;16.25;;;3.53;;
71108;SDS011;59614;51.012;-1.648;2023-02-26T00:55:14;11.75;;;3.22;;
71108;SDS011;59614;51.012;-1.648;2023-02-26T00:57:40;15.98;;;3.28;;
71108;SDS011;59614;51.012;-1.648;2023-02-26T01:00:05;20.23;;;3.58;;
71108;SDS011;59614;51.012;-1.648;2023-02-26T01:02:35;17.80;;;3.25;;
71108;SDS011;59614;51.012;-1.648;2023-02-26T01:05:03;18.10;;;3.45;;
71108;SDS011;59614;51.012;-1.648;2023-02-26T01:07:30;15.43;;;3.80;;
71108;SDS011;59614;51.012;-1.648;2023-02-26T01:10:02;18.77;;;3.38;;
71108;SDS011;59614;51.012;-1.648;2023-02-26T01:12:28;12.20;;;3.00;;
71108;SDS011;59614;51.012;-1.648;2023-02-26T01:14:54;14.77;;;3.35;;
71108;SDS011;59614;51.012;-1.648;2023-02-26T01:17:24;20.52;;;3.10;;
71108;SDS011;59614;51.012;-1.648;2023-02-26T01:20:04;18.88;;;3.65;;
71108;SDS011;59614;51.012;-1.648;2023-02-26T01:22:34;15.07;;;3.05;;
71108;SDS011;59614;51.012;-1.648;2023-02-26T01:29:58;16.17;;;2.83;;
71108;SDS011;59614;51.012;-1.648;2023-02-26T01:32:25;18.48;;;3.42;;
71108;SDS011;59614;51.012;-1.648;2023-02-26T01:49:24;15.95;;;3.45;;
71108;SDS011;59614;51.012;-1.648;2023-02-26T01:51:51;16.67;;;2.90;;
71108;SDS011;59614;51.012;-1.648;2023-02-26T01:54:18;17.50;;;3.53;;
71108;SDS011;59614;51.012;-1.648;2023-02-26T01:59:45;21.08;;;3.38;;
71108;SDS011;59614;51.012;-1.648;2023-02-26T02:02:13;16.15;;;3.90;;
71108;SDS011;59614;51.012;-1.648;2023-02-26T02:04:42;13.93;;;3.28;;
71108;SDS011;59614;51.012;-1.648;2023-02-26T02:07:09;18.15;;;3.30;;
71108;SDS011;59614;51.012;-1.648;2023-02-26T02:09:35;13.18;;;3.10;;
71108;SDS011;59614;51.012;-1.648;2023-02-26T02:17:20;17.67;;;3.35;;
71108;SDS011;59614;51.012;-1.648;2023-02-26T02:31:27;14.15;;;3.20;;
71108;SDS011;59614;51.012;-1.648;2023-02-26T02:39:07;15.43;;;3.17;;
71108;SDS011;59614;51.012;-1.648;2023-02-26T02:41:41;9.85;;;3.00;;
71108;SDS011;59614;51.012;-1.648;2023-02-26T02:44:13;16.58;;;3.35;;
71108;SDS011;59614;51.012;-1.648;2023-02-26T02:46:42;13.73;;;3.28;;
71108;SDS011;59614;51.012;-1.648;2023-02-26T02:49:20;11.93;;;2.90;;
71108;SDS011;59614;51.012;-1.648;2023-02-26T02:51:59;11.88;;;3.00;;
71108;SDS011;59614;51.012;-1.648;2023-02-26T02:57:34;18.08;;;3.95;;
71108;SDS011;59614;51.012;-1.648;2023-02-26T03:00:05;12.10;;;3.00;;
71108;SDS011;59614;51.012;-1.648;2023-02-26T03:05:29;14.40;;;2.92;;
71108;SDS011;59614;51.012;-1.648;2023-02-26T03:08:02;14.02;;;3.03;;
71108;SDS011;59614;51.012;-1.648;2023-02-26T03:10:31;15.70;;;3.08;;
71108;SDS011;59614;51.012;-1.648;2023-02-26T03:12:57;15.68;;;3.15;;
71108;SDS011;59614;51.012;-1.648;2023-02-26T03:15:33;12.90;;;3.78;;
71108;SDS011;59614;51.012;-1.648;2023-02-26T03:18:05;15.70;;;3.33;;
71108;SDS011;59614;51.012;-1.648;2023-02-26T03:20:47;15.45;;;3.40;;
71108;SDS011;59614;51.012;-1.648;2023-02-26T03:23:53;14.18;;;3.33;;
71108;SDS011;59614;51.012;-1.648;2023-02-26T03:26:30;15.68;;;2.85;;
71108;SDS011;59614;51.012;-1.648;2023-02-26T03:29:05;18.80;;;3.45;;
71108;SDS011;59614;51.012;-1.648;2023-02-26T03:31:39;14.32;;;3.08;;
71108;SDS011;59614;51.012;-1.648;2023-02-26T03:34:20;18.23;;;2.90;;
71108;SDS011;59614;51.012;-1.648;2023-02-26T03:37:05;19.85;;;4.00;;
71108;SDS011;59614;51.012;-1.648;2023-02-26T03:39:39;15.90;;;2.72;;
71108;SDS011;59614;51.012;-1.648;2023-02-26T03:47:26;10.38;;;2.75;;
71108;SDS011;59614;51.012;-1.648;2023-02-26T03:50:02;15.02;;;2.97;;
71108;SDS011;59614;51.012;-1.648;2023-02-26T03:52:39;13.63;;;3.38;;
71108;SDS011;59614;51.012;-1.648;2023-02-26T03:55:08;17.42;;;4.13;;
71108;SDS011;59614;51.012;-1.648;2023-02-26T03:57:40;13.13;;;3.35;;
71108;SDS011;59614;51.012;-1.648;2023-02-26T04:00:06;12.00;;;3.08;;
71108;SDS011;59614;51.012;-1.648;2023-02-26T04:03:18;17.63;;;3.60;;
71108;SDS011;59614;51.012;-1.648;2023-02-26T04:05:33;12.70;;;2.90;;
71108;SDS011;59614;51.012;-1.648;2023-02-26T04:08:03;16.35;;;3.65;;
71108;SDS011;59614;51.012;-1.648;2023-02-26T04:10:33;16.02;;;3.95;;
71108;SDS011;59614;51.012;-1.648;2023-02-26T04:13:04;12.27;;;2.85;;
71108;SDS011;59614;51.012;-1.648;2023-02-26T04:15:30;11.38;;;2.63;;
71108;SDS011;59614;51.012;-1.648;2023-02-26T04:17:55;20.83;;;3.58;;
71108;SDS011;59614;51.012;-1.648;2023-02-26T04:20:20;15.30;;;2.95;;
71108;SDS011;59614;51.012;-1.648;2023-02-26T04:22:46;11.38;;;2.72;;
71108;SDS011;59614;51.012;-1.648;2023-02-26T04:25:11;18.13;;;3.90;;
71108;SDS011;59614;51.012;-1.648;2023-02-26T04:27:37;14.60;;;3.17;;
71108;SDS011;59614;51.012;-1.648;2023-02-26T04:30:02;16.85;;;4.05;;
71108;SDS011;59614;51.012;-1.648;2023-02-26T04:32:28;14.10;;;3.30;;
71108;SDS011;59614;51.012;-1.648;2023-02-26T04:34:53;15.77;;;3.10;;
71108;SDS011;59614;51.012;-1.648;2023-02-26T04:37:19;16.85;;;3.85;;
71108;SDS011;59614;51.012;-1.648;2023-02-26T04:39:44;12.82;;;3.55;;
71108;SDS011;59614;51.012;-1.648;2023-02-26T04:42:10;14.55;;;3.92;;
71108;SDS011;59614;51.012;-1.648;2023-02-26T04:44:35;16.85;;;3.80;;
71108;SDS011;59614;51.012;-1.648;2023-02-26T04:47:00;17.08;;;3.50;;
71108;SDS011;59614;51.012;-1.648;2023-02-26T04:49:26;19.55;;;4.45;;
71108;SDS011;59614;51.012;-1.648;2023-02-26T04:51:51;11.63;;;3.22;;
71108;SDS011;59614;51.012;-1.648;2023-02-26T04:54:18;10.27;;;3.55;;
71108;SDS011;59614;51.012;-1.648;2023-02-26T04:56:44;17.55;;;3.80;;
71108;SDS011;59614;51.012;-1.648;2023-02-26T04:59:09;14.40;;;3.85;;
71108;SDS011;59614;51.012;-1.648;2023-02-26T05:01:34;11.27;;;3.60;;
71108;SDS011;59614;51.012;-1.648;2023-02-26T05:04:00;14.93;;;3.58;;
71108;SDS011;59614;51.012;-1.648;2023-02-26T05:06:25;11.60;;;3.40;;
71108;SDS011;59614;51.012;-1.648;2023-02-26T05:08:51;11.88;;;3.60;;
71108;SDS011;59614;51.012;-1.648;2023-02-26T05:11:17;14.23;;;3.10;;
71108;SDS011;59614;51.012;-1.648;2023-02-26T05:13:42;13.30;;;3.30;;
71108;SDS011;59614;51.012;-1.648;2023-02-26T05:16:07;16.77;;;3.38;;
71108;SDS011;59614;51.012;-1.648;2023-02-26T05:18:33;17.67;;;3.78;;
71108;SDS011;59614;51.012;-1.648;2023-02-26T05:20:59;16.35;;;3.10;;
71108;SDS011;59614;51.012;-1.648;2023-02-26T05:23:24;17.00;;;3.25;;
71108;SDS011;59614;51.012;-1.648;2023-02-26T05:25:50;14.02;;;3.30;;
71108;SDS011;59614;51.012;-1.648;2023-02-26T05:28:15;16.50;;;3.72;;
71108;SDS011;59614;51.012;-1.648;2023-02-26T05:30:41;16.23;;;3.38;;
71108;SDS011;59614;51.012;-1.648;2023-02-26T05:33:07;19.25;;;4.00;;
71108;SDS011;59614;51.012;-1.648;2023-02-26T05:35:32;12.50;;;3.83;;
71108;SDS011;59614;51.012;-1.648;2023-02-26T05:37:58;17.35;;;3.35;;
71108;SDS011;59614;51.012;-1.648;2023-02-26T05:40:24;13.10;;;3.40;;
71108;SDS011;59614;51.012;-1.648;2023-02-26T05:42:49;17.08;;;3.30;;
71108;SDS011;59614;51.012;-1.648;2023-02-26T05:45:16;11.95;;;4.22;;
71108;SDS011;59614;51.012;-1.648;2023-02-26T05:47:42;9.07;;;3.10;;
71108;SDS011;59614;51.012;-1.648;2023-02-26T05:50:07;24.70;;;3.63;;
71108;SDS011;59614;51.012;-1.648;2023-02-26T05:52:34;9.90;;;3.58;;
71108;SDS011;59614;51.012;-1.648;2023-02-26T05:54:59;11.02;;;3.78;;
71108;SDS011;59614;51.012;-1.648;2023-02-26T05:57:25;18.63;;;3.60;;
71108;SDS011;59614;51.012;-1.648;2023-02-26T05:59:50;15.98;;;3.53;;
71108;SDS011;59614;51.012;-1.648;2023-02-26T06:02:15;9.43;;;3.40;;
71108;SDS011;59614;51.012;-1.648;2023-02-26T06:04:41;13.85;;;3.85;;
71108;SDS011;59614;51.012;-1.648;2023-02-26T06:07:07;18.88;;;3.65;;
71108;SDS011;59614;51.012;-1.648;2023-02-26T06:09:32;11.55;;;3.35;;
71108;SDS011;59614;51.012;-1.648;2023-02-26T06:11:57;13.73;;;3.60;;
71108;SDS011;59614;51.012;-1.648;2023-02-26T06:14:23;20.17;;;4.10;;
71108;SDS011;59614;51.012;-1.648;2023-02-26T06:16:48;11.43;;;3.50;;
71108;SDS011;59614;51.012;-1.648;2023-02-26T06:19:14;8.60;;;3.60;;
71108;SDS011;59614;51.012;-1.648;2023-02-26T06:21:39;15.70;;;3.92;;
71108;SDS011;59614;51.012;-1.648;2023-02-26T06:24:05;11.00;;;3.25;;
71108;SDS011;59614;51.012;-1.648;2023-02-26T06:26:30;8.05;;;3.25;;
71108;SDS011;59614;51.012;-1.648;2023-02-26T06:28:56;12.38;;;3.60;;
71108;SDS011;59614;51.012;-1.648;2023-02-26T06:31:21;13.27;;;3.95;;
71108;SDS011;59614;51.012;-1.648;2023-02-26T06:33:47;17.17;;;4.78;;
71108;SDS011;59614;51.012;-1.648;2023-02-26T06:36:12;16.80;;;3.78;;
71108;SDS011;59614;51.012;-1.648;2023-02-26T06:38:38;16.80;;;3.75;;
71108;SDS011;59614;51.012;-1.648;2023-02-26T06:41:03;17.65;;;3.97;;
71108;SDS011;59614;51.012;-1.648;2023-02-26T06:43:29;13.40;;;3.80;;
71108;SDS011;59614;51.012;-1.648;2023-02-26T06:45:58;9.40;;;3.25;;
71108;SDS011;59614;51.012;-1.648;2023-02-26T06:48:24;9.02;;;3.15;;
71108;SDS011;59614;51.012;-1.648;2023-02-26T06:50:50;12.57;;;3.30;;
71108;SDS011;59614;51.012;-1.648;2023-02-26T06:53:15;17.83;;;4.47;;
71108;SDS011;59614;51.012;-1.648;2023-02-26T06:55:42;10.07;;;3.28;;
71108;SDS011;59614;51.012;-1.648;2023-02-26T07:00:34;8.27;;;3.08;;
71108;SDS011;59614;51.012;-1.648;2023-02-26T07:03:01;12.85;;;3.35;;
71108;SDS011;59614;51.012;-1.648;2023-02-26T07:05:26;17.50;;;3.90;;
71108;SDS011;59614;51.012;-1.648;2023-02-26T07:07:52;7.03;;;2.53;;
71108;SDS011;59614;51.012;-1.648;2023-02-26T07:10:17;9.70;;;3.13;;
71108;SDS011;59614;51.012;-1.648;2023-02-26T07:12:45;9.82;;;3.03;;
71108;SDS011;59614;51.012;-1.648;2023-02-26T07:15:11;12.07;;;3.20;;
71108;SDS011;59614;51.012;-1.648;2023-02-26T07:17:36;18.40;;;2.75;;
71108;SDS011;59614;51.012;-1.648;2023-02-26T07:20:02;18.08;;;3.35;;
71108;SDS011;59614;51.012;-1.648;2023-02-26T07:22:34;9.90;;;3.00;;
71108;SDS011;59614;51.012;-1.648;2023-02-26T07:27:28;21.90;;;3.03;;
71108;SDS011;59614;51.012;-1.648;2023-02-26T07:29:54;12.63;;;3.00;;
71108;SDS011;59614;51.012;-1.648;2023-02-26T07:32:20;10.68;;;3.22;;
71108;SDS011;59614;51.012;-1.648;2023-02-26T07:34:45;12.75;;;2.95;;
71108;SDS011;59614;51.012;-1.648;2023-02-26T07:37:11;12.57;;;3.83;;
71108;SDS011;59614;51.012;-1.648;2023-02-26T07:39:36;10.27;;;2.53;;
71108;SDS011;59614;51.012;-1.648;2023-02-26T07:42:02;11.70;;;3.03;;
71108;SDS011;59614;51.012;-1.648;2023-02-26T07:44:28;9.98;;;2.72;;
71108;SDS011;59614;51.012;-1.648;2023-02-26T07:46:53;18.13;;;3.85;;
71108;SDS011;59614;51.012;-1.648;2023-02-26T07:49:19;16.52;;;3.00;;
71108;SDS011;59614;51.012;-1.648;2023-02-26T07:51:45;13.93;;;3.10;;
71108;SDS011;59614;51.012;-1.648;2023-02-26T07:54:14;14.23;;;3.53;;
71108;SDS011;59614;51.012;-1.648;2023-02-26T07:56:39;11.98;;;3.25;;
71108;SDS011;59614;51.012;-1.648;2023-02-26T07:59:07;14.10;;;2.75;;
71108;SDS011;59614;51.012;-1.648;2023-02-26T08:01:33;15.50;;;3.13;;
71108;SDS011;59614;51.012;-1.648;2023-02-26T08:03:59;12.45;;;2.88;;
71108;SDS011;59614;51.012;-1.648;2023-02-26T08:06:25;8.73;;;2.85;;
71108;SDS011;59614;51.012;-1.648;2023-02-26T08:08:52;12.02;;;3.03;;
71108;SDS011;59614;51.012;-1.648;2023-02-26T08:11:17;13.05;;;3.30;;
71108;SDS011;59614;51.012;-1.648;2023-02-26T08:13:42;16.08;;;3.47;;
71108;SDS011;59614;51.012;-1.648;2023-02-26T08:16:08;11.48;;;3.83;;
71108;SDS011;59614;51.012;-1.648;2023-02-26T08:18:33;11.95;;;3.53;;
71108;SDS011;59614;51.012;-1.648;2023-02-26T08:20:59;11.85;;;2.97;;
71108;SDS011;59614;51.012;-1.648;2023-02-26T08:23:24;13.73;;;3.13;;
71108;SDS011;59614;51.012;-1.648;2023-02-26T08:25:50;15.25;;;3.45;;
71108;SDS011;59614;51.012;-1.648;2023-02-26T08:28:24;16.65;;;3.75;;
71108;SDS011;59614;51.012;-1.648;2023-02-26T08:30:51;17.30;;;3.47;;
71108;SDS011;59614;51.012;-1.648;2023-02-26T08:33:17;18.00;;;3.63;;
71108;SDS011;59614;51.012;-1.648;2023-02-26T08:35:43;18.20;;;2.72;;
71108;SDS011;59614;51.012;-1.648;2023-02-26T08:38:09;18.65;;;3.17;;
71108;SDS011;59614;51.012;-1.648;2023-02-26T08:40:34;16.20;;;3.22;;
71108;SDS011;59614;51.012;-1.648;2023-02-26T08:43:00;7.72;;;2.80;;
71108;SDS011;59614;51.012;-1.648;2023-02-26T08:45:25;15.13;;;2.78;;
71108;SDS011;59614;51.012;-1.648;2023-02-26T08:47:51;13.57;;;2.72;;
71108;SDS011;59614;51.012;-1.648;2023-02-26T08:50:18;10.85;;;2.55;;
71108;SDS011;59614;51.012;-1.648;2023-02-26T08:52:43;10.77;;;3.10;;
71108;SDS011;59614;51.012;-1.648;2023-02-26T08:55:09;14.48;;;3.03;;
71108;SDS011;59614;51.012;-1.648;2023-02-26T08:57:34;9.60;;;2.42;;
71108;SDS011;59614;51.012;-1.648;2023-02-26T09:00:00;14.00;;;2.92;;
71108;SDS011;59614;51.012;-1.648;2023-02-26T09:02:25;13.90;;;2.97;;
71108;SDS011;59614;51.012;-1.648;2023-02-26T09:04:51;20.30;;;3.75;;
71108;SDS011;59614;51.012;-1.648;2023-02-26T09:07:16;14.10;;;2.60;;
71108;SDS011;59614;51.012;-1.648;2023-02-26T09:09:42;10.57;;;2.50;;
71108;SDS011;59614;51.012;-1.648;2023-02-26T09:12:07;11.73;;;2.60;;
71108;SDS011;59614;51.012;-1.648;2023-02-26T09:14:32;12.50;;;2.80;;
71108;SDS011;59614;51.012;-1.648;2023-02-26T09:16:58;11.98;;;3.17;;
71108;SDS011;59614;51.012;-1.648;2023-02-26T09:19:23;6.82;;;2.20;;
71108;SDS011;59614;51.012;-1.648;2023-02-26T09:21:49;12.98;;;2.95;;
71108;SDS011;59614;51.012;-1.648;2023-02-26T09:24:14;13.77;;;2.85;;
71108;SDS011;59614;51.012;-1.648;2023-02-26T09:26:40;12.18;;;2.42;;
71108;SDS011;59614;51.012;-1.648;2023-02-26T09:29:05;9.20;;;2.55;;
71108;SDS011;59614;51.012;-1.648;2023-02-26T09:31:31;12.73;;;3.20;;
71108;SDS011;59614;51.012;-1.648;2023-02-26T09:33:56;12.02;;;2.50;;
71108;SDS011;59614;51.012;-1.648;2023-02-26T09:36:21;15.10;;;2.75;;
71108;SDS011;59614;51.012;-1.648;2023-02-26T09:38:47;10.43;;;2.50;;
71108;SDS011;59614;51.012;-1.648;2023-02-26T09:52:52;8.90;;;2.40;;
71108;SDS011;59614;51.012;-1.648;2023-02-26T09:55:18;8.90;;;2.53;;
71108;SDS011;59614;51.012;-1.648;2023-02-26T09:57:46;7.90;;;2.42;;
71108;SDS011;59614;51.012;-1.648;2023-02-26T10:03:04;13.57;;;3.33;;
71108;SDS011;59614;51.012;-1.648;2023-02-26T10:08:23;9.30;;;2.50;;
71108;SDS011;59614;51.012;-1.648;2023-02-26T10:11:01;16.10;;;3.20;;
71108;SDS011;59614;51.012;-1.648;2023-02-26T10:13:39;14.27;;;3.25;;
71108;SDS011;59614;51.012;-1.648;2023-02-26T10:16:19;12.88;;;2.80;;
71108;SDS011;59614;51.012;-1.648;2023-02-26T10:18:49;12.68;;;2.40;;
71108;SDS011;59614;51.012;-1.648;2023-02-26T10:21:21;11.65;;;2.60;;
71108;SDS011;59614;51.012;-1.648;2023-02-26T10:23:54;7.80;;;1.83;;
71108;SDS011;59614;51.012;-1.648;2023-02-26T10:26:23;11.88;;;3.28;;
71108;SDS011;59614;51.012;-1.648;2023-02-26T10:42:25;10.90;;;2.50;;
71108;SDS011;59614;51.012;-1.648;2023-02-26T10:47:51;16.70;;;2.85;;
71108;SDS011;59614;51.012;-1.648;2023-02-26T10:50:45;9.35;;;2.97;;
71108;SDS011;59614;51.012;-1.648;2023-02-26T10:53:13;13.38;;;2.38;;
71108;SDS011;59614;51.012;-1.648;2023-02-26T10:55:43;14.27;;;2.17;;
71108;SDS011;59614;51.012;-1.648;2023-02-26T10:58:15;33.45;;;4.78;;
71108;SDS011;59614;51.012;-1.648;2023-02-26T11:03:15;18.67;;;3.17;;
71108;SDS011;59614;51.012;-1.648;2023-02-26T11:05:43;10.45;;;3.00;;
71108;SDS011;59614;51.012;-1.648;2023-02-26T11:10:47;16.33;;;2.78;;
71108;SDS011;59614;51.012;-1.648;2023-02-26T11:13:16;17.80;;;3.80;;
71108;SDS011;59614;51.012;-1.648;2023-02-26T11:15:43;22.42;;;5.75;;
71108;SDS011;59614;51.012;-1.648;2023-02-26T11:18:14;15.20;;;2.97;;
71108;SDS011;59614;51.012;-1.648;2023-02-26T11:20:45;13.95;;;4.28;;
71108;SDS011;59614;51.012;-1.648;2023-02-26T11:23:17;15.82;;;3.60;;
71108;SDS011;59614;51.012;-1.648;2023-02-26T11:25:46;11.65;;;2.75;;
71108;SDS011;59614;51.012;-1.648;2023-02-26T11:28:19;10.38;;;2.35;;
71108;SDS011;59614;51.012;-1.648;2023-02-26T11:30:44;11.75;;;3.30;;
71108;SDS011;59614;51.012;-1.648;2023-02-26T11:33:18;12.25;;;2.97;;
71108;SDS011;59614;51.012;-1.648;2023-02-26T11:35:47;18.48;;;2.85;;
71108;SDS011;59614;51.012;-1.648;2023-02-26T11:38:17;8.40;;;2.28;;
71108;SDS011;59614;51.012;-1.648;2023-02-26T11:40:47;11.18;;;2.53;;
71108;SDS011;59614;51.012;-1.648;2023-02-26T11:43:18;13.32;;;2.28;;
71108;SDS011;59614;51.012;-1.648;2023-02-26T11:45:57;12.93;;;2.10;;
71108;SDS011;59614;51.012;-1.648;2023-02-26T11:48:25;8.13;;;2.05;;
71108;SDS011;59614;51.012;-1.648;2023-02-26T11:50:58;9.70;;;2.22;;
71108;SDS011;59614;51.012;-1.648;2023-02-26T11:53:33;8.60;;;2.58;;
71108;SDS011;59614;51.012;-1.648;2023-02-26T11:56:02;9.00;;;2.70;;
71108;SDS011;59614;51.012;-1.648;2023-02-26T11:58:35;11.68;;;2.42;;
71108;SDS011;59614;51.012;-1.648;2023-02-26T12:01:03;8.55;;;2.47;;
71108;SDS011;59614;51.012;-1.648;2023-02-26T12:05:58;8.55;;;2.88;;
71108;SDS011;59614;51.012;-1.648;2023-02-26T12:11:06;12.27;;;3.10;;
71108;SDS011;59614;51.012;-1.648;2023-02-26T12:19:18;15.00;;;3.90;;
71108;SDS011;59614;51.012;-1.648;2023-02-26T12:22:35;9.65;;;2.70;;
71108;SDS011;59614;51.012;-1.648;2023-02-26T12:36:24;11.23;;;2.60;;
71108;SDS011;59614;51.012;-1.648;2023-02-26T12:39:04;9.07;;;2.58;;
71108;SDS011;59614;51.012;-1.648;2023-02-26T12:44:59;8.52;;;2.10;;
71108;SDS011;59614;51.012;-1.648;2023-02-26T12:53:18;9.18;;;2.33;;
71108;SDS011;59614;51.012;-1.648;2023-02-26T13:12:37;6.50;;;1.77;;
71108;SDS011;59614;51.012;-1.648;2023-02-26T13:15:24;7.85;;;2.53;;
71108;SDS011;59614;51.012;-1.648;2023-02-26T13:18:03;8.20;;;2.13;;
71108;SDS011;59614;51.012;-1.648;2023-02-26T13:20:36;7.10;;;1.95;;
71108;SDS011;59614;51.012;-1.648;2023-02-26T13:23:50;10.57;;;2.20;;
71108;SDS011;59614;51.012;-1.648;2023-02-26T13:26:07;8.38;;;2.60;;
71108;SDS011;59614;51.012;-1.648;2023-02-26T13:28:42;6.82;;;2.25;;
71108;SDS011;59614;51.012;-1.648;2023-02-26T13:33:46;7.53;;;2.08;;
71108;SDS011;59614;51.012;-1.648;2023-02-26T13:36:14;8.60;;;1.80;;
71108;SDS011;59614;51.012;-1.648;2023-02-26T13:41:31;5.20;;;2.00;;
71108;SDS011;59614;51.012;-1.648;2023-02-26T13:52:30;10.07;;;2.30;;
71108;SDS011;59614;51.012;-1.648;2023-02-26T13:54:58;6.43;;;1.70;;
71108;SDS011;59614;51.012;-1.648;2023-02-26T13:57:42;5.25;;;1.75;;
71108;SDS011;59614;51.012;-1.648;2023-02-26T14:00:28;7.28;;;2.03;;
71108;SDS011;59614;51.012;-1.648;2023-02-26T14:03:09;4.43;;;1.60;;
71108;SDS011;59614;51.012;-1.648;2023-02-26T14:08:20;7.57;;;1.73;;
71108;SDS011;59614;51.012;-1.648;2023-02-26T14:10:55;5.53;;;1.27;;
71108;SDS011;59614;51.012;-1.648;2023-02-26T14:16:37;12.55;;;2.13;;
71108;SDS011;59614;51.012;-1.648;2023-02-26T14:21:38;5.50;;;2.00;;
71108;SDS011;59614;51.012;-1.648;2023-02-26T14:24:14;5.35;;;1.90;;
71108;SDS011;59614;51.012;-1.648;2023-02-26T14:26:48;4.22;;;1.95;;
71108;SDS011;59614;51.012;-1.648;2023-02-26T14:29:19;7.25;;;2.40;;
71108;SDS011;59614;51.012;-1.648;2023-02-26T14:34:25;6.78;;;1.85;;
71108;SDS011;59614;51.012;-1.648;2023-02-26T14:36:55;4.30;;;1.65;;
71108;SDS011;59614;51.012;-1.648;2023-02-26T14:39:24;4.72;;;1.88;;
71108;SDS011;59614;51.012;-1.648;2023-02-26T14:41:58;6.75;;;1.70;;
71108;SDS011;59614;51.012;-1.648;2023-02-26T14:44:27;3.78;;;1.80;;
71108;SDS011;59614;51.012;-1.648;2023-02-26T14:46:56;6.80;;;1.73;;
71108;SDS011;59614;51.012;-1.648;2023-02-26T14:54:37;4.35;;;1.63;;
71108;SDS011;59614;51.012;-1.648;2023-02-26T15:08:12;5.47;;;1.98;;
71108;SDS011;59614;51.012;-1.648;2023-02-26T15:18:25;2.55;;;1.05;;
71108;SDS011;59614;51.012;-1.648;2023-02-26T15:25:59;7.05;;;2.20;;
71108;SDS011;59614;51.012;-1.648;2023-02-26T15:28:25;5.18;;;1.73;;
71108;SDS011;59614;51.012;-1.648;2023-02-26T15:30:54;5.60;;;1.98;;
71108;SDS011;59614;51.012;-1.648;2023-02-26T15:33:22;6.20;;;2.30;;
71108;SDS011;59614;51.012;-1.648;2023-02-26T15:35:49;5.78;;;1.90;;
71108;SDS011;59614;51.012;-1.648;2023-02-26T15:38:17;6.47;;;2.20;;
71108;SDS011;59614;51.012;-1.648;2023-02-26T15:40:42;9.05;;;3.40;;
71108;SDS011;59614;51.012;-1.648;2023-02-26T15:43:10;5.72;;;2.55;;
71108;SDS011;59614;51.012;-1.648;2023-02-26T15:45:40;4.68;;;1.52;;
71108;SDS011;59614;51.012;-1.648;2023-02-26T15:48:27;6.10;;;1.90;;
71108;SDS011;59614;51.012;-1.648;2023-02-26T15:50:57;10.50;;;2.00;;
71108;SDS011;59614;51.012;-1.648;2023-02-26T15:53:27;5.97;;;2.30;;
71108;SDS011;59614;51.012;-1.648;2023-02-26T15:55:56;6.38;;;1.58;;
71108;SDS011;59614;51.012;-1.648;2023-02-26T15:58:32;8.27;;;1.90;;
71108;SDS011;59614;51.012;-1.648;2023-02-26T16:01:01;4.47;;;1.70;;
71108;SDS011;59614;51.012;-1.648;2023-02-26T16:03:29;4.13;;;1.67;;
71108;SDS011;59614;51.012;-1.648;2023-02-26T16:05:57;6.70;;;2.10;;
71108;SDS011;59614;51.012;-1.648;2023-02-26T16:08:23;6.95;;;1.90;;
71108;SDS011;59614;51.012;-1.648;2023-02-26T16:10:49;6.25;;;1.67;;
71108;SDS011;59614;51.012;-1.648;2023-02-26T16:15:47;4.45;;;1.77;;
71108;SDS011;59614;51.012;-1.648;2023-02-26T16:18:14;4.13;;;1.73;;
71108;SDS011;59614;51.012;-1.648;2023-02-26T16:20:47;6.03;;;2.22;;
71108;SDS011;59614;51.012;-1.648;2023-02-26T16:23:15;8.77;;;2.72;;
71108;SDS011;59614;51.012;-1.648;2023-02-26T16:25:59;15.10;;;6.00;;
71108;SDS011;59614;51.012;-1.648;2023-02-26T16:28:28;8.77;;;3.05;;
71108;SDS011;59614;51.012;-1.648;2023-02-26T16:30:56;14.75;;;5.55;;
71108;SDS011;59614;51.012;-1.648;2023-02-26T16:33:23;10.60;;;2.72;;
71108;SDS011;59614;51.012;-1.648;2023-02-26T16:38:45;3.92;;;1.63;;
71108;SDS011;59614;51.012;-1.648;2023-02-26T16:41:13;6.50;;;1.73;;
71108;SDS011;59614;51.012;-1.648;2023-02-26T16:46:19;6.32;;;1.90;;
71108;SDS011;59614;51.012;-1.648;2023-02-26T16:49:01;4.43;;;1.70;;
71108;SDS011;59614;51.012;-1.648;2023-02-26T16:51:31;5.53;;;2.25;;
71108;SDS011;59614;51.012;-1.648;2023-02-26T16:54:03;7.78;;;3.08;;
71108;SDS011;59614;51.012;-1.648;2023-02-26T16:56:33;6.68;;;1.63;;
71108;SDS011;59614;51.012;-1.648;2023-02-26T17:02:04;5.32;;;2.20;;
71108;SDS011;59614;51.012;-1.648;2023-02-26T17:04:33;8.90;;;2.20;;
71108;SDS011;59614;51.012;-1.648;2023-02-26T17:07:00;4.35;;;1.77;;
71108;SDS011;59614;51.012;-1.648;2023-02-26T17:09:32;9.55;;;2.13;;
71108;SDS011;59614;51.012;-1.648;2023-02-26T17:12:17;3.35;;;1.60;;
71108;SDS011;59614;51.012;-1.648;2023-02-26T17:14:46;8.48;;;3.63;;
71108;SDS011;59614;51.012;-1.648;2023-02-26T17:17:18;15.43;;;4.75;;
71108;SDS011;59614;51.012;-1.648;2023-02-26T17:19:43;12.98;;;6.28;;
71108;SDS011;59614;51.012;-1.648;2023-02-26T17:22:12;14.48;;;7.75;;
71108;SDS011;59614;51.012;-1.648;2023-02-26T17:24:40;17.10;;;8.82;;
71108;SDS011;59614;51.012;-1.648;2023-02-26T17:27:13;16.92;;;8.95;;
71108;SDS011;59614;51.012;-1.648;2023-02-26T17:29:44;17.15;;;7.47;;
71108;SDS011;59614;51.012;-1.648;2023-02-26T17:32:22;20.37;;;8.20;;
71108;SDS011;59614;51.012;-1.648;2023-02-26T17:34:50;10.40;;;5.00;;
71108;SDS011;59614;51.012;-1.648;2023-02-26T17:37:16;19.02;;;8.38;;
71108;SDS011;59614;51.012;-1.648;2023-02-26T17:39:43;12.32;;;6.90;;
71108;SDS011;59614;51.012;-1.648;2023-02-26T17:42:12;10.02;;;4.60;;
71108;SDS011;59614;51.012;-1.648;2023-02-26T17:44:40;10.93;;;5.50;;
71108;SDS011;59614;51.012;-1.648;2023-02-26T17:47:09;10.77;;;4.63;;
71108;SDS011;59614;51.012;-1.648;2023-02-26T17:49:40;16.58;;;4.00;;
71108;SDS011;59614;51.012;-1.648;2023-02-26T17:52:06;8.50;;;3.20;;
71108;SDS011;59614;51.012;-1.648;2023-02-26T17:54:32;8.00;;;3.25;;
71108;SDS011;59614;51.012;-1.648;2023-02-26T17:56:57;9.57;;;3.10;;
71108;SDS011;59614;51.012;-1.648;2023-02-26T17:59:23;8.93;;;3.67;;
71108;SDS011;59614;51.012;-1.648;2023-02-26T18:01:49;7.55;;;3.00;;
71108;SDS011;59614;51.012;-1.648;2023-02-26T18:04:15;6.78;;;3.25;;
71108;SDS011;59614;51.012;-1.648;2023-02-26T18:06:40;9.60;;;3.67;;
71108;SDS011;59614;51.012;-1.648;2023-02-26T18:09:06;8.50;;;3.65;;
71108;SDS011;59614;51.012;-1.648;2023-02-26T18:11:32;8.82;;;3.00;;
71108;SDS011;59614;51.012;-1.648;2023-02-26T18:13:58;6.53;;;2.67;;
71108;SDS011;59614;51.012;-1.648;2023-02-26T18:16:33;5.95;;;2.70;;